Time;durP1;ratioP1;P1;durP2;ratioP2;P2;SDS_P1;SDS_P2;PMS_P1;PMS_P2;Temp;Humidity;BMP_temperature;BMP_pressure;BME280_temperature;BME280_humidity;BME280_pressure;Samples;Min_cycle;Max_cycle;Signal;HPM_P1;HPM_P2
2023/06/03 00:01:21;;;;;;;3.13;1.37;;;7.80;99.90;;;;;;5117850;28;20213;-80
2023/06/03 00:03:49;;;;;;;2.63;1.10;;;7.90;99.90;;;;;;5116973;28;20277;-80
2023/06/03 00:06:16;;;;;;;0.93;0.90;;;8.00;99.90;;;;;;5105947;28;20245;-80
2023/06/03 00:08:43;;;;;;;1.43;1.00;;;8.00;99.90;;;;;;5124841;27;20287;-80
2023/06/03 00:11:11;;;;;;;1.50;1.37;;;7.30;99.90;;;;;;5119370;28;20204;-80
2023/06/03 00:13:38;;;;;;;2.63;1.17;;;7.30;99.90;;;;;;5119661;28;20221;-80
2023/06/03 00:16:05;;;;;;;1.17;1.07;;;7.50;99.90;;;;;;5120505;28;20203;-80
2023/06/03 00:18:33;;;;;;;2.60;1.90;;;7.40;99.90;;;;;;5119943;28;20220;-79
2023/06/03 00:21:02;;;;;;;1.43;1.23;;;7.10;99.90;;;;;;5119790;28;20219;-80
2023/06/03 00:23:31;;;;;;;2.20;1.07;;;7.10;99.90;;;;;;5119181;28;20586;-80
2023/06/03 00:25:58;;;;;;;1.20;1.07;;;7.30;99.90;;;;;;5119907;28;20289;-80
2023/06/03 00:28:25;;;;;;;1.43;1.27;;;7.60;99.90;;;;;;5119810;28;20215;-80
2023/06/03 00:30:52;;;;;;;2.87;1.20;;;7.30;99.90;;;;;;5118428;28;20207;-81
2023/06/03 00:33:19;;;;;;;2.07;1.17;;;7.20;99.90;;;;;;5112995;27;20255;-78
2023/06/03 00:35:46;;;;;;;1.67;1.33;;;7.20;99.90;;;;;;5112984;28;20206;-79
2023/06/03 00:38:15;;;;;;;2.90;1.37;;;7.20;99.90;;;;;;5111482;28;20197;-80
2023/06/03 00:40:42;;;;;;;3.80;1.47;;;7.50;99.90;;;;;;5113593;27;20258;-81
2023/06/03 00:43:08;;;;;;;2.03;1.63;;;7.60;99.90;;;;;;5117062;27;20349;-81
2023/06/03 00:45:35;;;;;;;4.20;1.40;;;7.70;99.90;;;;;;5115494;27;20220;-79
2023/06/03 00:48:02;;;;;;;2.53;1.20;;;7.80;99.90;;;;;;5119341;27;20201;-80
2023/06/03 00:50:29;;;;;;;1.33;1.10;;;7.80;99.90;;;;;;5114872;27;20277;-79
2023/06/03 00:52:57;;;;;;;3.60;1.30;;;7.70;99.90;;;;;;5118054;28;20229;-81
2023/06/03 00:55:25;;;;;;;3.67;1.40;;;7.70;99.90;;;;;;5117610;28;20665;-80
2023/06/03 00:57:53;;;;;;;2.10;1.17;;;7.60;99.90;;;;;;5119468;28;20207;-81
2023/06/03 01:00:20;;;;;;;2.23;1.20;;;7.70;99.90;;;;;;5115044;28;20581;-80
2023/06/03 01:02:46;;;;;;;1.67;1.13;;;7.60;99.90;;;;;;5115639;27;20221;-81
2023/06/03 01:05:15;;;;;;;2.73;1.27;;;7.50;99.90;;;;;;5117898;27;20217;-79
2023/06/03 01:07:51;;;;;;;11.10;2.07;;;7.40;99.90;;;;;;5122110;27;20197;-80
2023/06/03 01:10:23;;;;;;;1.40;1.30;;;7.60;99.90;;;;;;5114867;28;20288;-80
2023/06/03 01:12:58;;;;;;;4.17;1.43;;;7.40;99.90;;;;;;5119735;28;20623;-79
2023/06/03 01:15:28;;;;;;;1.20;1.10;;;7.50;99.90;;;;;;5121032;28;20193;-79
2023/06/03 01:17:58;;;;;;;2.63;1.67;;;7.40;99.90;;;;;;5119663;27;20197;-80
2023/06/03 01:20:26;;;;;;;1.60;1.10;;;7.40;99.90;;;;;;5120871;28;20193;-80
2023/06/03 01:22:58;;;;;;;3.07;1.20;;;7.30;99.90;;;;;;5121008;28;20242;-80
2023/06/03 01:25:28;;;;;;;2.73;1.40;;;7.50;99.90;;;;;;5121115;28;20311;-81
2023/06/03 01:27:57;;;;;;;2.67;1.60;;;7.40;99.90;;;;;;5121233;28;20205;-80
2023/06/03 01:30:24;;;;;;;2.63;1.33;;;7.20;99.90;;;;;;5120087;28;20212;-81
2023/06/03 01:32:53;;;;;;;1.63;1.20;;;7.00;99.90;;;;;;5122384;27;20227;-80
2023/06/03 01:35:20;;;;;;;1.90;1.43;;;7.00;99.90;;;;;;5120376;28;20455;-79
2023/06/03 01:37:47;;;;;;;2.73;1.27;;;6.90;99.90;;;;;;5119742;28;20204;-81
2023/06/03 01:40:15;;;;;;;1.47;1.30;;;6.80;99.90;;;;;;5119809;28;20197;-81
2023/06/03 01:42:43;;;;;;;2.80;1.20;;;6.80;99.90;;;;;;5119269;28;20221;-81
2023/06/03 01:45:11;;;;;;;1.37;1.23;;;6.70;99.90;;;;;;5118516;28;20216;-81
2023/06/03 01:47:37;;;;;;;1.50;1.40;;;6.60;99.90;;;;;;5119356;28;20203;-81
2023/06/03 01:50:05;;;;;;;2.83;1.60;;;6.70;99.90;;;;;;5119445;28;20194;-81
2023/06/03 01:52:32;;;;;;;2.20;2.00;;;6.70;99.90;;;;;;5119181;28;20228;-81
2023/06/03 01:54:58;;;;;;;5.10;1.50;;;6.70;99.90;;;;;;5120583;28;20196;-80
2023/06/03 01:57:25;;;;;;;3.63;1.73;;;6.80;99.90;;;;;;5120630;28;20207;-80
2023/06/03 01:59:55;;;;;;;3.83;1.90;;;6.80;99.90;;;;;;5119960;28;20209;-80
2023/06/03 02:02:22;;;;;;;2.50;1.40;;;6.70;99.90;;;;;;5120604;27;20220;-80
2023/06/03 02:04:49;;;;;;;2.77;1.50;;;6.60;99.90;;;;;;5120189;28;20575;-80
2023/06/03 02:07:16;;;;;;;1.57;1.43;;;6.60;99.90;;;;;;5120260;28;20228;-80
2023/06/03 02:09:43;;;;;;;1.43;1.17;;;6.00;99.90;;;;;;5119750;28;20211;-79
2023/06/03 02:12:10;;;;;;;1.30;1.20;;;5.60;99.90;;;;;;5119184;28;20205;-79
2023/06/03 02:14:38;;;;;;;1.07;1.00;;;5.80;99.90;;;;;;5119990;28;20693;-79
2023/06/03 02:17:07;;;;;;;1.67;1.10;;;5.90;99.90;;;;;;5119776;27;20205;-80
2023/06/03 02:19:34;;;;;;;2.30;1.30;;;5.80;99.90;;;;;;5119996;28;20250;-80
2023/06/03 02:22:01;;;;;;;2.07;1.37;;;5.90;99.90;;;;;;5119103;28;20204;-79
2023/06/03 02:24:31;;;;;;;1.23;1.00;;;6.10;99.90;;;;;;5117870;28;20204;-80
2023/06/03 02:27:02;;;;;;;2.80;1.10;;;6.30;99.90;;;;;;5119681;28;20223;-81
2023/06/03 02:29:30;;;;;;;2.00;1.10;;;6.50;99.90;;;;;;5119837;28;20201;-80
2023/06/03 02:31:58;;;;;;;1.73;1.10;;;6.60;99.90;;;;;;5118501;28;20292;-80
2023/06/03 02:34:26;;;;;;;4.00;1.30;;;6.50;99.90;;;;;;5119877;28;20673;-80
2023/06/03 02:36:53;;;;;;;2.20;0.90;;;6.10;99.90;;;;;;5119411;28;20211;-80
2023/06/03 02:39:20;;;;;;;1.67;1.10;;;6.30;99.90;;;;;;5118969;28;20632;-79
2023/06/03 02:41:48;;;;;;;1.73;1.23;;;6.40;99.90;;;;;;5119822;28;20262;-79
2023/06/03 02:44:15;;;;;;;3.70;1.53;;;6.50;99.90;;;;;;5119118;28;20228;-80
2023/06/03 02:46:42;;;;;;;3.80;2.47;;;6.60;99.90;;;;;;5118990;28;20225;-79
2023/06/03 02:49:10;;;;;;;4.97;2.03;;;6.60;99.90;;;;;;5120383;28;20295;-80
2023/06/03 02:51:39;;;;;;;5.07;2.60;;;6.70;99.90;;;;;;5119231;28;20212;-79
2023/06/03 02:54:06;;;;;;;3.27;1.70;;;6.70;99.90;;;;;;5111236;28;20217;-80
2023/06/03 02:56:33;;;;;;;2.00;1.80;;;6.70;99.90;;;;;;5119540;28;20224;-80
2023/06/03 02:59:00;;;;;;;2.13;1.93;;;6.70;99.90;;;;;;5119111;28;20246;-80
2023/06/03 03:01:28;;;;;;;1.87;1.77;;;5.90;99.90;;;;;;5118556;28;20205;-80
2023/06/03 03:03:55;;;;;;;1.67;1.43;;;5.70;99.90;;;;;;5117088;28;20284;-79
2023/06/03 03:06:24;;;;;;;2.43;1.60;;;5.50;99.90;;;;;;5118344;28;20213;-79
2023/06/03 03:08:54;;;;;;;3.77;1.97;;;5.30;99.90;;;;;;5117125;28;20197;-79
2023/06/03 03:11:21;;;;;;;1.30;1.20;;;5.30;99.90;;;;;;5116591;28;20205;-80
2023/06/03 03:13:48;;;;;;;2.27;1.20;;;5.30;99.90;;;;;;5118188;28;20224;-79
2023/06/03 03:16:17;;;;;;;3.83;1.30;;;5.50;99.90;;;;;;5117641;28;20197;-80
2023/06/03 03:18:44;;;;;;;2.10;1.47;;;5.50;99.90;;;;;;5117490;28;20203;-80
2023/06/03 03:21:10;;;;;;;1.73;1.30;;;5.80;99.90;;;;;;5118050;28;20653;-80
2023/06/03 03:23:37;;;;;;;1.73;1.10;;;5.80;99.90;;;;;;5117764;28;20296;-80
2023/06/03 03:26:08;;;;;;;1.77;1.50;;;5.70;99.90;;;;;;5117706;28;20220;-78
2023/06/03 03:28:35;;;;;;;3.27;1.40;;;5.70;99.90;;;;;;5118547;28;20205;-79
2023/06/03 03:31:04;;;;;;;2.10;1.10;;;6.00;99.90;;;;;;5118807;28;20282;-79
2023/06/03 03:33:31;;;;;;;2.47;1.37;;;6.30;99.90;;;;;;5117031;28;20251;-79
2023/06/03 03:36:08;;;;;;;5.57;1.60;;;6.50;99.90;;;;;;5117762;28;20207;-79
2023/06/03 03:38:35;;;;;;;1.60;1.30;;;6.50;99.90;;;;;;5118367;28;20201;-79
2023/06/03 03:41:04;;;;;;;4.53;1.50;;;6.40;99.90;;;;;;5118928;28;20209;-79
2023/06/03 03:43:32;;;;;;;4.53;1.43;;;6.50;99.90;;;;;;5120488;28;20220;-78
2023/06/03 03:45:59;;;;;;;2.80;1.57;;;6.70;99.90;;;;;;5120296;28;20213;-79
2023/06/03 03:48:28;;;;;;;2.27;1.60;;;6.90;99.90;;;;;;5119581;27;20205;-79
2023/06/03 03:50:55;;;;;;;3.50;1.60;;;7.20;99.90;;;;;;5116720;28;20197;-80
2023/06/03 03:53:23;;;;;;;2.80;1.80;;;7.20;99.90;;;;;;5122427;28;20216;-80
2023/06/03 03:55:52;;;;;;;2.30;1.40;;;7.10;99.90;;;;;;5121820;28;20197;-79
2023/06/03 03:58:24;;;;;;;2.77;1.73;;;7.20;99.90;;;;;;5121863;28;20209;-79
2023/06/03 04:00:53;;;;;;;2.83;1.43;;;7.30;99.90;;;;;;5121076;28;20284;-79
2023/06/03 04:03:23;;;;;;;2.80;2.00;;;7.40;99.90;;;;;;5122404;27;20223;-80
2023/06/03 04:05:50;;;;;;;3.47;1.40;;;7.60;99.90;;;;;;5118580;27;20223;-80
2023/06/03 04:08:36;;;;;;;1.63;1.27;;;8.00;99.90;;;;;;5121800;28;20284;-79
2023/06/03 04:11:04;;;;;;;3.00;1.60;;;9.10;99.90;;;;;;5121568;28;20300;-79
2023/06/03 04:13:31;;;;;;;2.80;1.43;;;8.30;99.90;;;;;;5121152;28;20700;-79
2023/06/03 04:16:00;;;;;;;2.00;0.97;;;8.20;99.90;;;;;;5120749;27;20201;-79
2023/06/03 04:18:27;;;;;;;2.10;1.33;;;9.80;99.90;;;;;;5114205;28;20197;-78
2023/06/03 04:20:56;;;;;;;2.30;1.37;;;11.30;1.00;;;;;;5120242;28;20205;-79
2023/06/03 04:23:23;;;;;;;2.90;1.30;;;12.30;1.00;;;;;;5119923;28;20564;-79
2023/06/03 04:25:53;;;;;;;2.67;1.57;;;11.90;35.70;;;;;;5121397;28;20229;-78
2023/06/03 04:28:20;;;;;;;3.43;1.47;;;11.20;1.00;;;;;;5121464;28;20649;-80
2023/06/03 04:30:47;;;;;;;1.67;1.30;;;10.10;99.90;;;;;;5121417;28;20246;-79
2023/06/03 04:33:15;;;;;;;3.50;1.67;;;9.30;99.90;;;;;;5120919;28;20224;-79
2023/06/03 04:35:42;;;;;;;10.77;2.10;;;9.10;99.90;;;;;;5121287;28;20225;-79
2023/06/03 04:38:09;;;;;;;2.80;1.70;;;9.20;99.90;;;;;;5121626;28;20558;-78
2023/06/03 04:40:37;;;;;;;2.47;1.07;;;9.00;99.90;;;;;;5121249;28;20575;-79
2023/06/03 04:43:04;;;;;;;3.87;1.63;;;9.30;99.90;;;;;;5121020;28;20225;-78
2023/06/03 04:45:32;;;;;;;2.07;1.80;;;9.40;99.90;;;;;;5122851;27;20205;-79
2023/06/03 04:48:01;;;;;;;2.40;1.47;;;9.30;99.90;;;;;;5120000;28;20676;-79
2023/06/03 04:50:35;;;;;;;2.63;1.53;;;9.30;99.90;;;;;;5120602;28;20215;-78
2023/06/03 04:53:02;;;;;;;1.40;1.30;;;9.40;99.90;;;;;;5120866;28;20693;-78
2023/06/03 04:55:30;;;;;;;2.80;1.60;;;9.50;99.90;;;;;;5121552;27;20211;-78
2023/06/03 04:58:00;;;;;;;2.73;1.93;;;9.50;99.90;;;;;;5120196;28;20287;-78
2023/06/03 05:00:27;;;;;;;4.53;2.03;;;9.60;99.90;;;;;;5119792;28;20250;-78
2023/06/03 05:02:59;;;;;;;2.67;1.90;;;9.70;99.90;;;;;;5118476;28;20225;-77
2023/06/03 05:05:27;;;;;;;3.10;1.70;;;9.80;99.90;;;;;;5120458;28;20571;-79
2023/06/03 05:07:55;;;;;;;3.87;1.60;;;9.90;99.90;;;;;;5119786;28;20197;-79
2023/06/03 05:10:22;;;;;;;2.77;1.77;;;10.00;99.90;;;;;;5119899;28;20204;-79
2023/06/03 05:12:49;;;;;;;1.83;1.37;;;10.00;99.90;;;;;;5119511;28;20221;-79
2023/06/03 05:15:16;;;;;;;1.97;1.50;;;9.90;99.90;;;;;;5121324;28;20702;-78
2023/06/03 05:17:42;;;;;;;3.90;1.90;;;10.20;99.90;;;;;;5120977;27;20203;-79
2023/06/03 05:20:11;;;;;;;2.53;1.53;;;10.70;99.90;;;;;;5119910;28;20205;-79
2023/06/03 05:22:38;;;;;;;2.90;1.67;;;10.80;99.90;;;;;;5119412;28;20225;-80
2023/06/03 05:25:07;;;;;;;4.03;1.60;;;10.60;99.90;;;;;;5118708;28;20665;-78
2023/06/03 05:27:34;;;;;;;2.50;1.47;;;10.90;99.90;;;;;;5119049;28;20220;-79
2023/06/03 05:30:01;;;;;;;2.73;1.63;;;11.10;99.90;;;;;;5120006;28;20207;-79
2023/06/03 05:32:27;;;;;;;3.90;1.57;;;11.10;99.90;;;;;;5115183;27;20701;-78
2023/06/03 05:34:54;;;;;;;1.67;1.47;;;11.00;99.90;;;;;;5117930;28;20201;-77
2023/06/03 05:37:21;;;;;;;1.63;1.40;;;11.10;99.90;;;;;;5118153;28;20205;-78
2023/06/03 05:39:48;;;;;;;1.67;1.23;;;10.90;99.90;;;;;;5117770;28;20205;-77
2023/06/03 05:42:16;;;;;;;4.13;1.27;;;11.70;99.90;;;;;;5117463;28;20209;-77
2023/06/03 05:44:43;;;;;;;2.10;1.43;;;12.00;3.60;;;;;;5118729;27;20208;-77
2023/06/03 05:47:10;;;;;;;3.13;1.60;;;12.50;82.60;;;;;;5117084;28;20612;-78
2023/06/03 05:49:37;;;;;;;2.97;1.57;;;12.40;99.90;;;;;;5116685;28;20197;-80
2023/06/03 05:52:04;;;;;;;2.17;1.73;;;13.00;1.00;;;;;;5115909;28;20235;-79
2023/06/03 05:54:31;;;;;;;2.83;1.80;;;12.60;1.00;;;;;;5115650;28;20205;-79
2023/06/03 05:56:58;;;;;;;2.90;1.73;;;12.10;1.00;;;;;;5118201;27;20192;-78
2023/06/03 05:59:26;;;;;;;2.80;1.57;;;11.90;99.90;;;;;;5116987;28;20197;-78
2023/06/03 06:01:53;;;;;;;1.87;1.23;;;11.80;1.00;;;;;;5116784;27;20201;-78
2023/06/03 06:04:20;;;;;;;2.27;1.60;;;11.70;1.00;;;;;;5114775;28;20222;-78
2023/06/03 06:06:47;;;;;;;5.60;1.63;;;11.80;1.00;;;;;;5116880;27;20221;-77
2023/06/03 06:09:13;;;;;;;2.10;1.33;;;11.80;1.00;;;;;;5116391;28;20197;-77
2023/06/03 06:11:42;;;;;;;2.10;1.50;;;12.00;1.00;;;;;;5114878;28;20209;-78
2023/06/03 06:14:08;;;;;;;2.53;1.40;;;12.40;99.90;;;;;;5115837;28;20719;-77
2023/06/03 06:16:37;;;;;;;2.40;1.57;;;12.10;1.00;;;;;;5115296;28;20582;-77
2023/06/03 06:19:03;;;;;;;3.50;1.80;;;12.20;99.90;;;;;;5116906;28;20717;-78
2023/06/03 06:21:30;;;;;;;1.73;1.50;;;12.30;1.00;;;;;;5119058;27;20215;-79
2023/06/03 06:23:57;;;;;;;1.53;1.33;;;12.20;1.00;;;;;;5116012;28;20221;-79
2023/06/03 06:26:25;;;;;;;2.10;1.40;;;12.40;99.90;;;;;;5115101;28;20224;-78
2023/06/03 06:28:52;;;;;;;2.83;1.57;;;12.50;1.00;;;;;;5116714;28;20232;-79
2023/06/03 06:31:19;;;;;;;2.07;1.63;;;12.40;99.90;;;;;;5114571;28;20645;-80
2023/06/03 06:33:48;;;;;;;5.00;2.17;;;12.60;84.90;;;;;;5116011;28;20235;-80
2023/06/03 06:36:30;;;;;;;4.37;2.03;;;12.70;1.00;;;;;;5116721;27;20653;-79
2023/06/03 06:38:57;;;;;;;3.47;2.10;;;12.60;1.00;;;;;;5112105;28;20276;-79
2023/06/03 06:41:26;;;;;;;3.90;1.90;;;12.60;1.00;;;;;;5114909;28;20205;-79
2023/06/03 06:43:53;;;;;;;4.50;1.70;;;12.60;1.00;;;;;;5116724;27;20261;-79
2023/06/03 06:46:20;;;;;;;5.27;2.27;;;12.70;7.30;;;;;;5118216;28;20543;-78
2023/06/03 06:48:48;;;;;;;2.80;1.90;;;13.00;1.00;;;;;;5117671;28;20200;-78
2023/06/03 06:51:19;;;;;;;4.73;1.90;;;12.90;1.00;;;;;;5117082;28;20203;-79
2023/06/03 06:53:48;;;;;;;3.67;2.30;;;12.90;1.00;;;;;;5117372;28;20653;-80
2023/06/03 06:56:18;;;;;;;4.87;2.30;;;12.90;99.90;;;;;;5118127;28;20257;-80
2023/06/03 06:58:45;;;;;;;4.33;1.87;;;13.00;99.90;;;;;;5116175;28;20309;-79
2023/06/03 07:01:12;;;;;;;5.60;2.20;;;13.10;99.90;;;;;;5116062;28;20200;-79
2023/06/03 07:03:39;;;;;;;2.73;1.57;;;13.30;1.00;;;;;;5114149;28;20225;-79
2023/06/03 07:06:07;;;;;;;3.80;1.93;;;13.20;1.00;;;;;;5115284;28;20201;-79
2023/06/03 07:08:34;;;;;;;3.33;1.43;;;13.60;1.00;;;;;;5116761;28;20200;-78
2023/06/03 07:11:03;;;;;;;2.60;1.50;;;13.60;1.00;;;;;;5113806;28;20725;-78
2023/06/03 07:13:31;;;;;;;3.00;1.60;;;13.60;99.90;;;;;;5115015;28;20223;-78
2023/06/03 07:15:57;;;;;;;4.50;2.03;;;13.50;1.00;;;;;;5119096;28;20203;-78
2023/06/03 07:18:25;;;;;;;4.23;1.80;;;13.50;99.90;;;;;;5119886;28;20196;-78
2023/06/03 07:20:52;;;;;;;3.60;1.97;;;13.50;1.00;;;;;;5120229;28;20201;-77
2023/06/03 07:23:25;;;;;;;2.77;1.90;;;13.60;99.90;;;;;;5118986;28;20221;-78
2023/06/03 07:25:53;;;;;;;3.23;1.47;;;13.80;1.00;;;;;;5121666;27;20211;-78
2023/06/03 07:28:21;;;;;;;2.87;1.37;;;13.90;1.00;;;;;;5118708;28;20221;-77
2023/06/03 07:30:52;;;;;;;4.67;1.30;;;14.00;1.00;;;;;;5121997;28;20205;-79
2023/06/03 07:33:26;;;;;;;3.10;1.47;;;14.00;1.00;;;;;;5117938;28;20769;-78
2023/06/03 07:35:54;;;;;;;3.63;1.47;;;14.10;99.90;;;;;;5119505;28;20246;-80
2023/06/03 07:38:56;;;;;;;0.87;0.80;;;14.30;1.00;;;;;;5119696;28;20193;-78
2023/06/03 07:41:35;;;;;;;3.63;1.00;;;14.30;1.00;;;;;;5120850;28;20204;-78
2023/06/03 07:44:03;;;;;;;2.57;1.37;;;14.20;1.00;;;;;;5119700;28;20288;-80
2023/06/03 07:46:38;;;;;;;2.10;1.30;;;14.10;1.00;;;;;;5119517;28;20197;-79
2023/06/03 07:49:04;;;;;;;1.03;0.93;;;14.10;1.00;;;;;;5119155;28;20196;-79
2023/06/03 07:51:32;;;;;;;2.50;0.80;;;14.40;99.90;;;;;;5119326;28;20212;-79
2023/06/03 07:54:00;;;;;;;3.73;1.00;;;14.30;1.00;;;;;;5119913;27;20216;-80
2023/06/03 07:56:29;;;;;;;1.17;0.80;;;14.30;1.00;;;;;;5118654;28;20205;-79
2023/06/03 07:58:57;;;;;;;2.37;0.90;;;14.40;1.00;;;;;;5118929;28;20215;-80
2023/06/03 08:01:25;;;;;;;2.20;1.33;;;14.50;1.00;;;;;;5118992;27;20657;-79
2023/06/03 08:03:52;;;;;;;1.50;0.97;;;14.60;1.00;;;;;;5120193;28;20270;-80
2023/06/03 08:06:20;;;;;;;0.80;0.80;;;14.80;89.80;;;;;;5121914;27;20208;-79
2023/06/03 08:08:47;;;;;;;1.73;0.60;;;14.80;1.00;;;;;;5118122;27;20229;-78
2023/06/03 08:11:15;;;;;;;1.00;0.77;;;14.80;99.90;;;;;;5116688;28;20642;-78
2023/06/03 08:13:44;;;;;;;1.33;0.67;;;14.80;1.00;;;;;;5116053;28;20696;-79
2023/06/03 08:16:14;;;;;;;1.83;1.00;;;14.90;99.90;;;;;;5119788;28;20228;-78
2023/06/03 08:18:43;;;;;;;1.03;0.67;;;14.80;99.90;;;;;;5115953;28;20284;-78
2023/06/03 08:21:11;;;;;;;1.63;0.70;;;14.70;1.00;;;;;;5113887;27;20217;-80
2023/06/03 08:23:38;;;;;;;1.83;0.70;;;14.70;1.00;;;;;;5116296;27;20217;-78
2023/06/03 08:26:05;;;;;;;2.23;0.80;;;14.80;1.00;;;;;;5116767;27;20208;-79
2023/06/03 08:28:33;;;;;;;1.60;0.87;;;14.90;1.00;;;;;;5117264;28;20240;-78
2023/06/03 08:31:00;;;;;;;1.53;0.80;;;14.90;1.00;;;;;;5117218;27;20217;-78
2023/06/03 08:33:27;;;;;;;2.13;0.90;;;15.00;1.00;;;;;;5117188;28;20224;-79
2023/06/03 08:35:53;;;;;;;1.00;0.60;;;14.90;1.00;;;;;;5122163;27;20566;-78
2023/06/03 08:38:20;;;;;;;0.70;0.70;;;15.10;1.00;;;;;;5117354;28;20645;-78
2023/06/03 08:40:49;;;;;;;0.55;0.50;;;15.30;1.00;;;;;;5116272;28;20231;-79
2023/06/03 08:43:17;;;;;;;0.60;0.60;;;15.20;1.00;;;;;;5118466;28;20219;-79
2023/06/03 08:45:54;;;;;;;2.72;1.10;;;15.30;1.00;;;;;;5115890;27;20210;-80
2023/06/03 08:48:29;;;;;;;1.83;0.77;;;15.30;99.90;;;;;;5109723;27;20227;-79
2023/06/03 08:51:04;;;;;;;1.53;1.10;;;15.60;1.00;;;;;;5117590;27;20200;-78
2023/06/03 08:53:35;;;;;;;1.15;0.93;;;15.70;1.00;;;;;;5119138;27;20247;-78
2023/06/03 08:56:03;;;;;;;1.67;1.10;;;15.80;99.90;;;;;;5119822;27;20201;-78
2023/06/03 08:58:36;;;;;;;0.70;0.55;;;16.20;99.90;;;;;;5103854;28;20194;-78
2023/06/03 09:01:04;;;;;;;0.93;0.80;;;16.40;99.90;;;;;;5117740;28;20197;-78
2023/06/03 09:03:32;;;;;;;4.03;1.23;;;16.30;99.90;;;;;;5117515;28;20221;-79
2023/06/03 09:06:00;;;;;;;1.42;0.57;;;16.50;99.90;;;;;;5114318;28;20204;-78
2023/06/03 09:08:28;;;;;;;0.60;0.60;;;16.30;18.30;;;;;;5114499;28;20225;-79
2023/06/03 09:10:56;;;;;;;1.38;0.85;;;16.70;55.00;;;;;;5118078;27;20216;-79
2023/06/03 09:13:24;;;;;;;2.88;0.90;;;16.70;99.90;;;;;;5114601;27;20316;-79
2023/06/03 09:15:51;;;;;;;1.27;1.00;;;17.00;1.00;;;;;;5117605;27;20201;-80
2023/06/03 09:18:20;;;;;;;0.80;0.80;;;17.10;1.00;;;;;;5113819;28;20242;-79
2023/06/03 09:20:46;;;;;;;0.82;0.70;;;17.30;1.00;;;;;;5112860;27;20201;-80
2023/06/03 09:23:14;;;;;;;1.42;0.60;;;17.10;1.00;;;;;;5105373;28;20217;-80
2023/06/03 09:25:41;;;;;;;1.25;0.65;;;17.30;1.00;;;;;;5115980;27;20232;-78
2023/06/03 09:28:07;;;;;;;1.50;0.63;;;17.20;1.00;;;;;;5114416;28;20216;-78
2023/06/03 09:30:35;;;;;;;0.75;0.75;;;17.60;1.00;;;;;;5112725;28;20618;-79
2023/06/03 09:33:02;;;;;;;2.53;0.98;;;17.40;1.00;;;;;;5116143;28;20222;-79
2023/06/03 09:35:30;;;;;;;1.02;0.68;;;17.50;1.00;;;;;;5117057;28;20203;-79
2023/06/03 09:38:01;;;;;;;1.20;0.70;;;17.40;1.00;;;;;;5116231;28;20257;-79
2023/06/03 09:40:30;;;;;;;1.00;0.90;;;17.50;1.00;;;;;;5112163;27;20215;-79
2023/06/03 09:42:57;;;;;;;0.60;0.60;;;17.70;99.90;;;;;;5117964;28;20223;-79
2023/06/03 09:45:28;;;;;;;2.05;0.63;;;17.70;99.90;;;;;;5113072;28;20213;-78
2023/06/03 09:47:54;;;;;;;1.33;0.90;;;18.00;99.90;;;;;;5110743;28;20224;-78
2023/06/03 09:50:22;;;;;;;2.97;0.90;;;18.50;99.90;;;;;;5114527;27;20201;-77
2023/06/03 09:52:50;;;;;;;0.38;0.38;;;18.40;99.90;;;;;;5115937;28;20232;-79
2023/06/03 09:55:17;;;;;;;1.63;0.80;;;17.60;8.60;;;;;;5111465;28;20197;-79
2023/06/03 09:58:01;;;;;;;2.88;1.02;;;18.10;99.90;;;;;;5113950;28;20200;-81
2023/06/03 10:00:27;;;;;;;1.48;0.80;;;18.00;1.00;;;;;;5117632;27;20211;-80
2023/06/03 10:03:06;;;;;;;1.02;0.82;;;18.40;46.70;;;;;;5115068;28;20221;-81
2023/06/03 10:05:33;;;;;;;0.75;0.70;;;18.60;1.00;;;;;;5108189;28;20193;-80
2023/06/03 10:08:02;;;;;;;1.13;0.60;;;18.30;1.00;;;;;;5116388;28;20227;-79
2023/06/03 10:10:29;;;;;;;1.30;0.63;;;18.20;1.00;;;;;;5114216;28;20205;-80
2023/06/03 10:12:57;;;;;;;2.53;0.60;;;18.20;1.00;;;;;;5118045;27;20677;-80
2023/06/03 10:15:37;;;;;;;2.38;1.13;;;18.10;1.00;;;;;;5115678;27;20670;-80
2023/06/03 10:18:04;;;;;;;1.33;0.77;;;18.50;1.00;;;;;;5113773;28;20192;-79
2023/06/03 10:20:34;;;;;;;0.55;0.50;;;18.30;1.00;;;;;;5115694;28;20201;-80
2023/06/03 10:23:03;;;;;;;0.77;0.60;;;18.20;1.00;;;;;;5117152;27;20232;-81
2023/06/03 10:25:33;;;;;;;0.63;0.63;;;18.10;1.00;;;;;;5119744;27;20239;-79
2023/06/03 10:28:00;;;;;;;0.57;0.57;;;18.00;1.00;;;;;;5118312;27;20684;-79
2023/06/03 10:30:28;;;;;;;0.65;0.60;;;18.20;1.00;;;;;;5119977;27;20201;-79
2023/06/03 10:32:58;;;;;;;0.70;0.70;;;18.00;99.90;;;;;;5117525;27;20228;-80
2023/06/03 10:35:27;;;;;;;0.57;0.57;;;18.40;99.90;;;;;;5115373;28;20197;-80
2023/06/03 10:37:54;;;;;;;0.70;0.70;;;17.90;99.90;;;;;;5119514;27;20616;-79
2023/06/03 10:40:23;;;;;;;0.75;0.75;;;18.10;99.90;;;;;;5119752;27;20244;-80
2023/06/03 10:42:50;;;;;;;1.50;0.80;;;18.10;99.90;;;;;;5111619;27;20223;-80
2023/06/03 10:45:18;;;;;;;1.13;0.63;;;18.10;99.90;;;;;;5115140;28;20205;-79
2023/06/03 10:47:47;;;;;;;1.42;0.65;;;18.50;99.90;;;;;;5112887;28;20225;-80
2023/06/03 10:50:26;;;;;;;0.50;0.50;;;18.60;99.90;;;;;;5111771;28;20211;-80
2023/06/03 10:53:05;;;;;;;2.05;0.65;;;18.80;99.90;;;;;;5107143;28;20278;-80
2023/06/03 10:55:43;;;;;;;1.52;0.77;;;18.50;99.90;;;;;;5116353;28;20200;-79
2023/06/03 10:58:15;;;;;;;1.70;0.73;;;19.00;77.40;;;;;;5115117;28;20198;-80
2023/06/03 11:00:59;;;;;;;0.80;0.80;;;19.00;1.00;;;;;;5115662;28;20203;-80
2023/06/03 11:03:28;;;;;;;2.00;0.82;;;19.00;1.00;;;;;;5111713;28;20578;-80
2023/06/03 11:06:15;;;;;;;0.80;0.70;;;19.20;1.00;;;;;;5110353;28;20442;-80
2023/06/03 11:08:59;;;;;;;1.67;0.50;;;18.80;1.00;;;;;;5115327;28;20216;-80
2023/06/03 11:12:05;;;;;;;0.93;0.77;;;18.90;1.00;;;;;;5117068;28;20200;-80
2023/06/03 11:14:54;;;;;;;0.90;0.80;;;19.10;1.00;;;;;;5103212;28;20232;-79
2023/06/03 11:17:22;;;;;;;0.90;0.70;;;19.40;1.00;;;;;;5113148;28;20205;-81
2023/06/03 11:19:51;;;;;;;1.10;0.98;;;19.20;1.00;;;;;;5117727;28;20192;-81
2023/06/03 11:22:44;;;;;;;4.95;1.33;;;18.60;1.00;;;;;;5116789;28;20200;-80
2023/06/03 11:25:32;;;;;;;3.03;0.70;;;19.50;1.00;;;;;;5115781;28;20200;-80
2023/06/03 11:28:34;;;;;;;0.93;0.80;;;19.40;1.00;;;;;;5114849;28;20221;-79
2023/06/03 11:31:04;;;;;;;1.55;0.55;;;19.20;1.00;;;;;;5111174;28;20200;-80
2023/06/03 11:33:31;;;;;;;0.98;0.93;;;19.40;1.00;;;;;;5115120;28;20221;-81
2023/06/03 11:35:58;;;;;;;1.42;0.65;;;19.80;1.00;;;;;;5119012;28;20707;-81
2023/06/03 11:38:58;;;;;;;1.10;1.00;;;19.70;1.00;;;;;;5119332;28;20205;-80
2023/06/03 11:42:00;;;;;;;0.70;0.70;;;19.40;1.00;;;;;;5114850;28;20197;-80
2023/06/03 11:44:26;;;;;;;2.03;0.90;;;19.10;1.00;;;;;;5115774;28;20291;-81
2023/06/03 11:46:55;;;;;;;1.00;0.65;;;19.70;1.00;;;;;;5114112;28;20211;-79
2023/06/03 11:49:22;;;;;;;1.30;1.20;;;19.60;1.00;;;;;;5114088;28;20231;-80
2023/06/03 11:51:52;;;;;;;0.80;0.80;;;19.40;1.00;;;;;;5114054;28;20213;-80
2023/06/03 11:54:21;;;;;;;0.70;0.70;;;19.10;1.00;;;;;;5113316;28;20213;-81
2023/06/03 11:56:50;;;;;;;1.00;0.65;;;19.80;1.00;;;;;;5113498;28;20688;-80
2023/06/03 11:59:20;;;;;;;1.73;0.73;;;19.30;1.00;;;;;;5112095;28;20668;-80
2023/06/03 12:01:59;;;;;;;1.08;0.93;;;19.40;1.00;;;;;;5115131;28;20200;-80
2023/06/03 12:04:27;;;;;;;0.85;0.85;;;19.30;1.00;;;;;;5109162;28;20221;-81
2023/06/03 12:06:54;;;;;;;0.60;0.60;;;19.40;1.00;;;;;;5116030;28;20201;-82
2023/06/03 12:09:22;;;;;;;2.25;0.90;;;19.80;1.00;;;;;;5114583;28;20221;-80
2023/06/03 12:11:49;;;;;;;1.00;0.80;;;19.80;1.00;;;;;;5119043;28;20212;-81
2023/06/03 12:14:32;;;;;;;2.05;0.90;;;19.80;1.00;;;;;;5117811;28;20311;-80
2023/06/03 12:17:10;;;;;;;1.25;0.80;;;20.00;1.00;;;;;;5123158;27;20209;-79
2023/06/03 12:19:41;;;;;;;1.27;1.17;;;19.60;99.90;;;;;;5113310;28;20197;-79
2023/06/03 12:22:08;;;;;;;1.48;0.90;;;20.10;99.90;;;;;;5118035;28;20207;-80
2023/06/03 12:24:35;;;;;;;1.50;0.77;;;19.80;99.90;;;;;;5118107;28;20218;-79
2023/06/03 12:27:16;;;;;;;1.63;0.82;;;19.80;99.90;;;;;;5117408;27;20200;-81
2023/06/03 12:29:44;;;;;;;1.25;1.10;;;19.70;99.90;;;;;;5117309;27;20267;-80
2023/06/03 12:32:13;;;;;;;0.95;0.80;;;19.80;99.90;;;;;;5119207;27;20206;-80
2023/06/03 12:34:41;;;;;;;0.75;0.70;;;19.90;99.90;;;;;;5117682;27;20208;-78
2023/06/03 12:37:08;;;;;;;2.30;0.80;;;20.40;99.90;;;;;;5119904;27;20211;-80
2023/06/03 12:39:44;;;;;;;1.25;1.05;;;19.90;99.90;;;;;;5117310;28;20197;-81
2023/06/03 12:42:11;;;;;;;1.33;0.70;;;20.10;99.90;;;;;;5116791;27;20197;-81
2023/06/03 12:44:45;;;;;;;0.77;0.73;;;19.90;99.90;;;;;;5118013;27;20220;-80
2023/06/03 12:47:16;;;;;;;4.43;1.00;;;19.80;99.90;;;;;;5117156;28;20283;-80
2023/06/03 12:49:43;;;;;;;1.05;0.95;;;19.50;99.90;;;;;;5118083;28;20232;-80
2023/06/03 12:52:15;;;;;;;1.10;0.98;;;19.30;99.90;;;;;;5118375;27;20300;-79
2023/06/03 12:54:42;;;;;;;0.70;0.70;;;19.30;99.90;;;;;;5120086;27;20197;-80
2023/06/03 12:57:10;;;;;;;1.42;0.85;;;19.60;99.90;;;;;;5119282;28;20292;-80
2023/06/03 12:59:54;;;;;;;0.88;0.88;;;19.60;99.90;;;;;;5119919;28;20193;-80
2023/06/03 13:02:22;;;;;;;0.80;0.70;;;20.00;99.90;;;;;;5112078;27;20201;-79
2023/06/03 13:04:49;;;;;;;0.80;0.80;;;20.10;99.90;;;;;;5114932;28;20216;-81
2023/06/03 13:07:16;;;;;;;1.02;0.90;;;19.70;94.60;;;;;;5107889;27;20205;-80